createdAt,value
2022-10-23T00:03:29.258Z,99.01
2022-10-23T00:08:30.772Z,99.01
2022-10-23T00:13:32.237Z,99.12
2022-10-23T00:18:37.041Z,99.02
2022-10-23T00:23:39.109Z,99.15
2022-10-23T00:28:40.713Z,98.86
2022-10-23T00:33:43.233Z,99.07
2022-10-23T00:38:48.391Z,99.03
2022-10-23T00:44:09.492Z,98.99
2022-10-23T00:54:24.460Z,99.06
2022-10-23T00:59:27.290Z,99.02
2022-10-23T01:04:29.740Z,98.90
2022-10-23T01:10:03.606Z,98.95
2022-10-23T01:15:38.017Z,98.96
2022-10-23T01:20:48.768Z,99.04
2022-10-23T01:26:10.249Z,98.86
2022-10-23T01:31:18.720Z,98.83
2022-10-23T01:36:24.233Z,98.75
2022-10-23T01:41:35.889Z,98.97
2022-10-23T01:46:40.097Z,98.88
2022-10-23T01:51:48.652Z,98.99
2022-10-23T01:56:52.733Z,98.96
2022-10-23T02:02:00.494Z,98.75
2022-10-23T02:07:02.643Z,98.99
2022-10-23T02:12:17.384Z,98.87
2022-10-23T02:17:27.734Z,98.82
2022-10-23T02:22:36.859Z,98.87
2022-10-23T02:27:44.917Z,98.77
2022-10-23T02:32:50.809Z,98.88
2022-10-23T02:37:56.731Z,98.88
2022-10-23T02:43:27.633Z,98.62
2022-10-23T02:48:44.746Z,98.89
2022-10-23T02:54:24.222Z,98.65
2022-10-23T03:00:05.053Z,98.53
2022-10-23T03:05:10.530Z,98.79
2022-10-23T03:10:12.360Z,98.78
2022-10-23T03:15:13.798Z,98.78
2022-10-23T03:20:15.301Z,98.90
2022-10-23T03:25:18.888Z,98.83
2022-10-23T03:30:20.836Z,98.94
2022-10-23T03:35:27.388Z,98.88
2022-10-23T03:40:29.010Z,98.99
2022-10-23T03:45:30.895Z,98.79
2022-10-23T03:50:32.423Z,98.87
2022-10-23T03:55:33.912Z,98.99
2022-10-23T04:00:35.547Z,98.97
2022-10-23T04:05:37.726Z,99.08
2022-10-23T04:10:39.353Z,99.11
2022-10-23T04:15:40.832Z,99.21
2022-10-23T04:20:42.417Z,99.22
2022-10-23T04:25:43.937Z,99.36
2022-10-23T04:30:45.741Z,99.35
2022-10-23T04:35:47.403Z,99.26
2022-10-23T04:40:48.909Z,99.25
2022-10-23T04:45:55.026Z,99.10
2022-10-23T04:51:01.522Z,99.16
2022-10-23T04:56:21.430Z,99.14
2022-10-23T05:01:25.932Z,99.24
2022-10-23T05:06:27.669Z,99.28
2022-10-23T05:11:48.187Z,99.25
2022-10-23T05:17:00.652Z,99.21
2022-10-23T05:22:02.430Z,99.38
2022-10-23T05:27:20.270Z,99.61
2022-10-23T05:32:24.251Z,99.46
2022-10-23T05:37:26.382Z,99.56
2022-10-23T05:42:40.913Z,99.70
2022-10-23T05:47:45.272Z,99.68
2022-10-23T05:53:30.853Z,99.65
2022-10-23T05:58:58.802Z,99.83
2022-10-23T06:04:19.156Z,99.93
2022-10-23T06:09:43.554Z,100.00
2022-10-23T06:14:45.058Z,99.83
2022-10-23T06:19:47.089Z,99.89
2022-10-23T06:24:51.939Z,100.00
2022-10-23T06:30:01.326Z,100.00
2022-10-23T06:35:03.837Z,99.91
2022-10-23T06:40:06.430Z,100.00
2022-10-23T06:45:14.297Z,100.00
2022-10-23T06:50:18.928Z,100.00
2022-10-23T06:55:21.655Z,100.00
2022-10-23T07:00:23.438Z,100.00
2022-10-23T07:05:26.081Z,100.00
2022-10-23T07:10:27.763Z,100.00
2022-10-23T07:15:32.453Z,100.00
2022-10-23T07:20:34.701Z,100.00
2022-10-23T07:25:37.748Z,100.00
2022-10-23T07:30:56.440Z,100.00
2022-10-23T07:36:02.452Z,100.00
2022-10-23T07:41:06.820Z,100.00
2022-10-23T07:46:12.733Z,100.00
2022-10-23T07:51:16.114Z,99.84
2022-10-23T07:56:26.221Z,99.82
2022-10-23T08:01:52.688Z,99.57
2022-10-23T08:07:01.045Z,99.61
2022-10-23T08:12:05.469Z,99.60
2022-10-23T08:17:09.826Z,99.40
2022-10-23T08:22:30.665Z,99.44
2022-10-23T08:27:32.655Z,99.58
2022-10-23T08:32:34.506Z,99.61
2022-10-23T08:37:37.794Z,99.65
2022-10-23T08:42:41.847Z,99.55
2022-10-23T08:47:50.679Z,99.43
2022-10-23T08:53:34.654Z,99.44
2022-10-23T09:04:00.064Z,99.37
2022-10-23T09:09:28.840Z,99.28
2022-10-23T09:14:55.372Z,99.29
2022-10-23T09:20:06.336Z,99.29
2022-10-23T09:25:18.621Z,99.12
2022-10-23T09:30:36.712Z,99.01
2022-10-23T09:35:38.206Z,98.73
2022-10-23T09:40:43.923Z,98.30
2022-10-23T09:45:57.198Z,97.97
2022-10-23T09:51:14.520Z,97.44
2022-10-23T09:56:33.157Z,96.37
2022-10-23T10:01:45.215Z,95.19
2022-10-23T10:07:20.691Z,94.53
2022-10-23T10:12:31.514Z,94.39
2022-10-23T10:17:37.615Z,93.56
2022-10-23T10:22:54.150Z,93.59
2022-10-23T10:28:10.136Z,93.02
2022-10-23T10:33:22.766Z,92.99
2022-10-23T10:38:45.401Z,92.95
2022-10-23T10:44:11.896Z,92.34
2022-10-23T10:49:19.877Z,91.90
2022-10-23T10:54:50.036Z,91.34
2022-10-23T10:59:55.505Z,90.92
2022-10-23T11:05:19.411Z,90.29
2022-10-23T11:10:21.587Z,89.83
2022-10-23T11:15:37.332Z,89.18
2022-10-23T11:21:14.483Z,89.33
2022-10-23T11:26:55.018Z,88.91
2022-10-23T11:32:20.920Z,88.90
2022-10-23T11:37:24.463Z,88.66
2022-10-23T11:42:31.642Z,87.76
2022-10-23T11:47:42.559Z,87.39
2022-10-23T11:53:14.610Z,86.39
2022-10-23T11:58:23.746Z,86.02
2022-10-23T12:03:36.272Z,86.09
2022-10-23T12:08:40.735Z,86.06
2022-10-23T12:13:45.319Z,85.10
2022-10-23T12:18:49.796Z,84.61
2022-10-23T12:24:09.295Z,84.49
2022-10-23T12:29:40.915Z,84.17
2022-10-23T12:34:42.390Z,84.36
2022-10-23T12:39:43.948Z,84.04
2022-10-23T12:44:45.700Z,84.42
2022-10-23T12:49:51.293Z,84.43
2022-10-23T12:54:53.507Z,84.57
2022-10-23T13:00:10.550Z,84.65
2022-10-23T13:05:17.722Z,84.94
2022-10-23T13:10:21.355Z,84.27
2022-10-23T13:15:38.014Z,84.71
2022-10-23T13:20:51.743Z,84.85
2022-10-23T13:26:19.327Z,84.78
2022-10-23T13:31:20.727Z,84.65
2022-10-23T13:36:24.426Z,84.52
2022-10-23T13:41:28.452Z,84.93
2022-10-23T13:46:29.925Z,85.02
2022-10-23T13:51:38.865Z,85.28
2022-10-23T13:56:43.611Z,85.00
2022-10-23T14:01:47.766Z,85.31
2022-10-23T14:06:49.868Z,85.11
2022-10-23T14:11:51.971Z,85.27
2022-10-23T14:16:54.679Z,85.49
2022-10-23T14:21:56.198Z,85.45
2022-10-23T14:26:57.673Z,85.80
2022-10-23T14:31:59.158Z,86.21
2022-10-23T14:37:09.294Z,86.28
2022-10-23T14:42:10.968Z,86.49
2022-10-23T14:47:12.541Z,86.91
2022-10-23T14:52:14.015Z,86.71
2022-10-23T14:57:17.832Z,86.70
2022-10-23T15:02:19.342Z,87.02
2022-10-23T15:07:20.816Z,86.96
2022-10-23T15:12:22.940Z,87.40
2022-10-23T15:17:24.450Z,87.13
2022-10-23T15:22:26.310Z,87.38
2022-10-23T15:27:27.755Z,87.63
2022-10-23T15:32:29.186Z,87.44
2022-10-23T15:37:30.651Z,87.93
2022-10-23T15:42:32.213Z,87.63
2022-10-23T15:47:33.892Z,87.84
2022-10-23T15:52:35.627Z,88.07
2022-10-23T15:57:40.630Z,88.25
2022-10-23T16:02:42.762Z,88.59
2022-10-23T16:07:44.482Z,88.42
2022-10-23T16:12:46.145Z,88.61
2022-10-23T16:17:48.907Z,88.58
2022-10-23T16:22:50.365Z,88.50
2022-10-23T16:27:51.844Z,88.13
2022-10-23T16:32:54.765Z,88.29
2022-10-23T16:37:56.263Z,88.30
2022-10-23T16:42:58.597Z,88.08
2022-10-23T16:48:06.828Z,88.27
2022-10-23T16:53:08.465Z,88.11
2022-10-23T16:58:10.019Z,88.40
2022-10-23T17:03:11.472Z,88.00
2022-10-23T17:08:12.925Z,87.92
2022-10-23T17:13:14.372Z,87.89
2022-10-23T17:18:15.827Z,88.13
2022-10-23T17:23:17.310Z,87.98
2022-10-23T17:28:18.792Z,88.05
2022-10-23T17:33:20.256Z,87.71
2022-10-23T17:38:21.694Z,87.83
2022-10-23T17:43:23.147Z,87.38
2022-10-23T17:48:26.124Z,87.48
2022-10-23T17:53:27.792Z,87.25
2022-10-23T17:58:30.063Z,87.38
2022-10-23T18:03:31.540Z,87.39
2022-10-23T18:08:33.201Z,87.09
2022-10-23T18:13:36.585Z,86.81
2022-10-23T18:18:40.059Z,86.31
2022-10-23T18:23:42.462Z,86.27
2022-10-23T18:28:48.273Z,86.09
2022-10-23T18:33:49.811Z,86.20
2022-10-23T18:38:51.664Z,86.06
2022-10-23T18:43:54.285Z,86.09
2022-10-23T18:48:55.753Z,85.93
2022-10-23T18:53:59.870Z,85.94
2022-10-23T18:59:03.843Z,85.56
2022-10-23T19:04:05.719Z,85.42
2022-10-23T19:09:09.138Z,85.46
2022-10-23T19:14:10.914Z,85.19
2022-10-23T19:19:18.471Z,85.11
2022-10-23T19:24:23.512Z,85.20
2022-10-23T19:29:27.463Z,85.26
2022-10-23T19:34:28.972Z,85.25
2022-10-23T19:39:30.512Z,85.38
2022-10-23T19:44:31.982Z,85.91
2022-10-23T19:49:33.459Z,86.08
2022-10-23T19:54:35.248Z,86.17
2022-10-23T19:59:36.825Z,86.23
2022-10-23T20:04:38.289Z,86.98
2022-10-23T20:09:40.424Z,87.09
2022-10-23T20:14:41.949Z,87.22
2022-10-23T20:19:44.557Z,87.67
2022-10-23T20:24:46.148Z,87.93
2022-10-23T20:29:48.554Z,87.95
2022-10-23T20:34:50.396Z,88.38
2022-10-23T20:39:54.798Z,88.71
2022-10-23T20:44:56.273Z,88.54
2022-10-23T20:49:57.719Z,88.95
2022-10-23T20:54:59.400Z,89.02
2022-10-23T21:00:02.991Z,89.24
2022-10-23T21:05:04.795Z,89.47
2022-10-23T21:10:06.767Z,89.75
2022-10-23T21:15:09.037Z,89.74
2022-10-23T21:20:10.562Z,90.19
2022-10-23T21:25:12.003Z,90.34
2022-10-23T21:30:13.523Z,90.63
2022-10-23T21:35:15.213Z,90.94
2022-10-23T21:40:16.747Z,90.84
2022-10-23T21:45:18.463Z,91.33
2022-10-23T21:50:20.290Z,91.58
2022-10-23T21:55:26.072Z,91.63
2022-10-23T22:00:27.554Z,91.56
2022-10-23T22:05:29.071Z,91.61
2022-10-23T22:10:30.530Z,91.89
2022-10-23T22:15:31.984Z,91.69
2022-10-23T22:20:33.480Z,91.47
2022-10-23T22:25:38.306Z,91.62
2022-10-23T22:30:39.784Z,91.19
2022-10-23T22:35:41.284Z,91.31
2022-10-23T22:40:46.490Z,91.18
2022-10-23T22:45:48.299Z,90.81
2022-10-23T22:50:49.773Z,90.76
2022-10-23T22:55:52.042Z,90.67
2022-10-23T23:01:02.579Z,90.89
2022-10-23T23:06:05.772Z,90.70
2022-10-23T23:11:09.120Z,90.30
2022-10-23T23:16:19.893Z,90.15
2022-10-23T23:21:22.045Z,90.08
2022-10-23T23:26:23.647Z,90.04
2022-10-23T23:31:26.382Z,89.67
2022-10-23T23:36:28.677Z,89.59
2022-10-23T23:41:30.443Z,89.34
2022-10-23T23:46:31.896Z,89.38
2022-10-23T23:51:33.421Z,88.74
2022-10-23T23:56:35.413Z,88.47
